Latest Weather Observations for Lismore Airport

IDN60801

Issued at 2:32 pm EDT Saturday 29 February 2020 (issued every 10 minutes, with the page automatically refreshed every 10 minutes)

About weather observations | Map of weather stations | Latest weather observations for NSW | Other Formats
Station Details ID: 058214 Name: LISMORE AIRPORT AWS Lat: -28.83 Lon: 153.26 Height: 9.21 m
Data from the previous 72 hours. | See also: Recent months at Lismore Airport
Date/Time
EDT
Temp
°C
App
Temp
°C
Dew
Point
°C
Rel
Hum
%
Delta-T
°C
Wind Press
QNH
hPa
Press
MSL
hPa
Rain since
9am
mm
Dir  Spd
km/h
Gust
km/h
Spd
kts
Gust
kts
29/02:30pm 28.2 28.0 20.5 63 5.1 SSE 22 30 12 16 1013.3 1013.3 0.0
29/02:00pm 27.9 27.4 19.9 61 5.2 SSE 22 32 12 17 1013.8 1013.8 0.0
29/01:30pm 26.9 27.6 20.5 68 4.2 S 17 24 9 13 1014.2 1014.2 0.0
29/01:00pm 25.7 27.5 20.3 72 3.5 S 11 17 6 9 1014.6 1014.6 0.0
29/12:30pm 25.9 25.5 20.2 71 3.7 S 22 30 12 16 1014.9 1014.9 0.0
29/12:00pm 26.3 25.4 19.9 68 4.2 SSE 24 32 13 17 1014.9 1014.9 0.0
29/11:30am 27.4 27.8 21.0 68 4.2 S 20 26 11 14 1015.2 1015.2 0.0
29/11:00am 26.5 27.1 20.3 68 4.1 S 17 24 9 13 1015.3 1015.3 0.0
29/10:30am 25.6 25.8 19.3 68 4.0 SSW 17 26 9 14 1015.3 1015.3 0.0
29/10:00am 25.1 25.7 19.5 71 3.6 SSW 15 20 8 11 1015.4 1015.4 0.0
29/09:30am 24.3 25.1 19.1 73 3.3 S 13 20 7 11 1015.3 1015.3 0.0
29/09:00am 23.4 24.2 19.1 77 2.7 SSW 13 17 7 9 1015.3 1015.3 6.0
29/08:30am 22.3 22.7 18.1 77 2.6 SSW 13 17 7 9 1015.0 1015.0 6.0
29/08:00am 22.0 23.0 18.6 81 2.1 SSW 11 17 6 9 1014.9 1014.9 6.0
29/07:30am 21.3 24.5 18.9 86 1.5 CALM 0 0 0 0 1014.4 1014.4 6.0
29/07:00am 21.0 24.3 19.1 89 1.2 CALM 0 0 0 0 1014.2 1014.2 6.0
29/06:30am 20.9 24.2 19.0 89 1.2 CALM 0 0 0 0 1013.7 1013.7 6.0
29/06:00am 21.1 24.6 19.6 91 1.0 CALM 0 0 0 0 1013.6 1013.6 6.0
29/05:30am 21.1 24.7 19.7 92 0.9 CALM 0 0 0 0 1013.4 1013.4 6.0
29/05:00am 21.1 24.7 19.7 92 0.9 CALM 0 0 0 0 1013.3 1013.3 6.0
29/04:30am 21.1 24.4 19.9 93 0.8 SSE 2 11 1 6 1013.0 1013.0 6.0
29/04:20am 21.0 22.9 19.8 93 0.8 SSW 9 11 5 6 1013.0 1013.0 6.0
29/04:18am 21.0 23.3 19.8 93 0.8 SSW 7 11 4 6 1013.0 1013.0 6.0
29/04:00am 21.0 22.5 19.8 93 0.8 SSW 11 15 6 8 1013.1 1013.1 5.8
29/03:33am 21.4 21.9 20.0 92 0.9 S 17 22 9 12 1012.9 1012.9 2.0
29/03:30am 21.4 21.8 19.9 91 1.0 S 17 22 9 12 1012.9 1012.9 1.2
29/03:23am 21.7 21.9 20.2 91 1.0 S 19 24 10 13 1012.8 1012.8 0.6
29/03:13am 22.0 22.3 20.3 90 1.1 S 19 28 10 15 1012.8 1012.8 0.2
29/03:00am 22.1 22.8 20.4 90 1.1 S 17 20 9 11 1012.6 1012.6 0.2
29/02:30am 22.6 24.3 20.9 90 1.1 SSE 13 17 7 9 1012.6 1012.6 0.2
29/02:00am 23.0 25.0 21.6 92 0.9 S 13 15 7 8 1012.8 1012.8 0.2
29/01:56am 23.0 25.0 21.6 92 0.9 S 13 15 7 8 1012.8 1012.8 0.2
29/01:51am 23.0 25.0 21.6 92 0.9 SSW 13 17 7 9 1012.9 1012.9 0.2
29/01:37am 23.0 27.5 21.6 92 0.9 CALM 0 11 0 6 1012.7 1012.7 0.2
29/01:30am 23.0 26.8 21.6 92 0.9 SE 4 9 2 5 1012.7 1012.7 0.0
29/01:00am 22.7 27.1 21.3 92 0.9 CALM 0 0 0 0 1012.7 1012.7 0.0
29/12:30am 22.7 25.7 21.3 92 0.9 SSW 7 13 4 7 1012.7 1012.7 0.0
29/12:00am 22.7 25.8 21.0 90 1.1 SE 6 9 3 5 1012.5 1012.5 0.0
 
Date/Time
EDT
Temp
°C
App
Temp
°C
Dew
Point
°C
Rel
Hum
%
Delta-T
°C
Wind Press
QNH
hPa
Press
MSL
hPa
Rain since
9am
mm
Dir  Spd
km/h
Gust
km/h
Spd
kts
Gust
kts
28/11:30pm 22.6 26.9 21.1 91 1.0 CALM 0 0 0 0 1012.5 1012.5 0.0
28/11:00pm 22.8 27.1 21.1 90 1.1 CALM 0 0 0 0 1012.5 1012.5 0.0
28/10:30pm 22.9 27.1 21.0 89 1.2 CALM 0 0 0 0 1012.3 1012.3 0.0
28/10:00pm 23.4 27.8 21.3 88 1.4 CALM 0 0 0 0 1012.2 1012.2 0.0
28/09:30pm 23.8 28.0 20.9 84 1.9 CALM 0 0 0 0 1011.7 1011.7 0.0
28/09:00pm 24.3 28.7 21.4 84 1.9 CALM 0 0 0 0 1011.3 1011.3 0.0
28/08:30pm 24.5 28.9 21.4 83 2.0 CALM 0 0 0 0 1011.0 1011.0 0.0
28/08:00pm 24.9 28.0 21.4 81 2.3 ESE 7 13 4 7 1010.4 1010.4 0.0
28/07:30pm 25.6 27.6 21.5 78 2.7 ESE 13 19 7 10 1010.0 1010.0 0.0
28/07:00pm 26.1 27.7 21.5 76 3.1 ESE 15 20 8 11 1009.5 1009.5 0.0
28/06:30pm 26.4 27.6 21.4 74 3.3 ESE 17 24 9 13 1008.9 1008.9 0.0
28/06:00pm 27.1 28.2 21.2 70 3.9 ESE 17 26 9 14 1008.2 1008.2 0.0
28/05:30pm 28.2 28.9 21.5 67 4.5 SE 20 30 11 16 1007.6 1007.6 0.0
28/05:00pm 28.9 29.0 21.1 62 5.2 SE 22 32 12 17 1007.1 1007.1 0.0
28/04:30pm 29.2 29.4 21.4 63 5.2 SE 22 32 12 17 1007.0 1007.0 0.0
28/04:00pm 29.3 29.3 21.0 61 5.5 SE 22 32 12 17 1006.8 1006.8 0.0
28/03:30pm 29.8 30.3 20.9 59 5.9 SE 19 26 10 14 1007.0 1007.0 0.0
28/03:00pm 30.2 31.2 21.8 60 5.7 SE 19 24 10 13 1007.0 1007.0 0.0
28/02:30pm 31.8 35.3 21.9 55 6.7 ESE 6 13 3 7 1007.1 1007.1 0.0
28/02:00pm 30.6 33.5 21.1 57 6.4 SSE 7 19 4 10 1007.3 1007.3 0.0
28/01:30pm 30.7 33.9 21.2 57 6.4 SE 6 17 3 9 1007.6 1007.6 0.0
28/01:00pm 30.0 33.2 20.5 56 6.3 S 4 13 2 7 1007.8 1007.8 0.0
28/12:30pm 29.7 33.1 21.6 61 5.4 ESE 6 15 3 8 1008.2 1008.2 0.0
28/12:00pm 29.8 33.7 22.5 65 5.0 E 6 13 3 7 1008.3 1008.3 0.0
28/11:30am 28.8 32.3 22.1 67 4.5 ENE 7 13 4 7 1008.6 1008.6 0.0
28/11:00am 27.8 32.0 20.9 66 4.6 CALM 0 0 0 0 1008.5 1008.5 0.0
28/10:30am 27.1 30.5 21.6 72 3.7 S 6 13 3 7 1008.5 1008.5 0.0
28/10:00am 25.0 28.9 21.1 79 2.6 E 2 7 1 4 1008.5 1008.5 0.0
28/09:30am 23.5 28.6 22.7 95 0.5 CALM 0 0 0 0 1008.5 1008.5 0.0
28/09:15am 23.7 28.3 23.2 97 0.3 N 4 9 2 5 1008.5 1008.5 0.0
28/09:00am 23.2 27.0 22.7 97 0.3 NNW 7 9 4 5 1008.5 1008.5 0.2
28/08:44am 22.7 25.4 22.2 97 0.3 NNW 11 15 6 8 1008.3 1008.3 0.2
28/08:30am 22.0 24.4 21.5 97 0.3 NNW 11 15 6 8 1008.3 1008.3 0.2
28/08:00am 21.5 23.2 21.0 97 0.3 NNW 13 15 7 8 1008.3 1008.3 0.2
28/07:30am 21.2 23.5 20.7 97 0.3 N 9 13 5 7 1008.3 1008.3 0.2
28/07:00am 20.9 23.0 20.2 96 0.4 N 9 13 5 7 1008.0 1008.0 0.2
28/06:30am 20.9 23.0 20.2 96 0.4 NNW 9 13 5 7 1007.8 1007.8 0.2
28/06:00am 21.0 23.2 20.3 96 0.5 N 9 13 5 7 1007.7 1007.7 0.0
28/05:30am 21.1 23.3 20.4 96 0.5 N 9 13 5 7 1007.4 1007.4 0.0
28/05:00am 21.1 22.9 20.4 96 0.5 NW 11 13 6 7 1007.2 1007.2 0.0
28/04:30am 21.1 23.7 20.4 96 0.5 N 7 13 4 7 1006.9 1006.9 0.0
28/04:00am 21.0 23.7 20.2 95 0.5 N 6 13 3 7 1007.0 1007.0 0.0
28/03:30am 20.5 24.1 19.7 95 0.5 CALM 0 0 0 0 1007.2 1007.2 0.0
28/03:07am 20.6 24.2 19.8 95 0.5 CALM 0 0 0 0 1007.4 1007.4 0.0
28/03:00am 20.8 24.5 20.0 95 0.5 CALM 0 0 0 0 1007.4 1007.4 0.0
28/02:30am 21.1 25.0 20.3 95 0.5 CALM 0 0 0 0 1007.5 1007.5 0.0
28/02:00am 21.4 25.4 20.6 95 0.5 CALM 0 0 0 0 1007.8 1007.8 0.0
28/01:55am 21.5 25.6 20.7 95 0.5 CALM 0 0 0 0 1007.8 1007.8 0.0
28/01:30am 21.6 24.4 20.8 95 0.5 NNE 7 11 4 6 1008.1 1008.1 0.0
28/01:00am 21.3 25.2 20.3 94 0.6 CALM 0 0 0 0 1008.4 1008.4 0.0
28/12:30am 21.7 25.8 20.7 94 0.6 CALM 0 0 0 0 1008.4 1008.4 0.0
28/12:00am 21.8 25.9 20.8 94 0.7 CALM 0 0 0 0 1008.6 1008.6 0.0
 
Date/Time
EDT
Temp
°C
App
Temp
°C
Dew
Point
°C
Rel
Hum
%
Delta-T
°C
Wind Press
QNH
hPa
Press
MSL
hPa
Rain since
9am
mm
Dir  Spd
km/h
Gust
km/h
Spd
kts
Gust
kts
27/11:30pm 22.0 26.2 21.0 94 0.7 CALM 0 0 0 0 1008.7 1008.7 0.0
27/11:00pm 22.0 26.2 21.0 94 0.7 CALM 0 0 0 0 1008.5 1008.5 0.0
27/10:30pm 22.3 26.6 21.1 93 0.8 CALM 0 0 0 0 1008.6 1008.6 0.0
27/10:00pm 22.3 26.6 21.1 93 0.8 CALM 0 0 0 0 1008.3 1008.3 0.0
27/09:30pm 22.7 27.1 21.3 92 0.9 CALM 0 0 0 0 1008.5 1008.5 0.0
27/09:00pm 22.8 27.2 21.3 91 1.0 CALM 0 0 0 0 1008.1 1008.1 0.0
27/08:30pm 22.9 27.3 21.4 91 1.0 CALM 0 0 0 0 1007.5 1007.5 0.0
27/08:00pm 23.3 27.8 21.6 90 1.1 CALM 0 0 0 0 1007.4 1007.4 0.0
27/07:30pm 23.8 26.2 21.5 87 1.5 S 11 13 6 7 1007.2 1007.2 0.0
27/07:00pm 24.9 27.2 22.0 84 1.9 S 13 17 7 9 1007.4 1007.4 0.0
27/06:30pm 25.7 28.7 22.0 80 2.5 SE 9 11 5 6 1007.3 1007.3 0.0
27/06:00pm 25.9 28.8 21.8 78 2.7 SE 9 13 5 7 1007.3 1007.3 0.0
27/05:30pm 25.8 27.3 21.2 76 3.0 ESE 15 19 8 10 1006.9 1006.9 0.0
27/05:00pm 26.5 28.5 21.5 74 3.3 ESE 13 19 7 10 1006.8 1006.8 0.0
27/04:30pm 26.9 28.0 21.2 71 3.8 ESE 17 22 9 12 1006.8 1006.8 0.0
27/04:00pm 27.2 28.2 21.0 69 4.1 ESE 17 22 9 12 1007.1 1007.1 0.0
27/03:30pm 27.5 27.9 20.6 66 4.5 SE 19 30 10 16 1007.1 1007.1 0.0
27/03:00pm 27.8 27.5 20.4 64 4.9 SE 22 30 12 16 1007.2 1007.2 0.0
27/02:30pm 28.8 29.5 21.6 65 4.8 SE 20 30 11 16 1007.3 1007.3 0.0
27/02:00pm 27.2 28.1 20.8 68 4.2 SSE 17 24 9 13 1007.5 1007.5 0.0
27/01:30pm 26.9 26.3 20.5 68 4.2 SSE 24 32 13 17 1007.5 1007.5 0.0
27/01:00pm 27.1 28.3 21.4 71 3.8 SSE 17 20 9 11 1007.9 1007.9 0.0
27/12:30pm 26.3 27.1 20.6 71 3.7 SE 17 20 9 11 1008.2 1008.2 0.0
27/12:00pm 26.3 27.1 21.3 74 3.3 SSE 19 26 10 14 1008.7 1008.7 0.0
27/11:41am 26.4 27.7 21.6 75 3.2 SSE 17 24 9 13 1008.8 1008.8 0.0
27/11:30am 25.8 26.7 21.5 77 2.9 SSE 19 24 10 13 1008.9 1008.9 0.0
27/11:00am 25.3 27.3 21.6 80 2.5 S 13 17 7 9 1009.2 1009.2 0.0
27/10:30am 25.0 27.0 21.5 81 2.3 SSE 13 17 7 9 1009.0 1009.0 0.0
27/10:24am 24.7 26.6 21.4 82 2.2 S 13 19 7 10 1009.1 1009.1 0.0
27/10:00am 24.4 25.8 21.1 82 2.2 SSE 15 19 8 10 1009.1 1009.1 0.0
27/09:30am 23.7 25.0 20.8 84 1.9 S 15 19 8 10 1009.1 1009.1 0.0
27/09:00am 23.7 24.6 20.8 84 1.9 S 17 20 9 11 1008.7 1008.7 12.8
27/08:36am 23.1 24.9 21.2 89 1.2 S 13 17 7 9 1008.5 1008.5 12.8
27/08:30am 22.6 24.2 20.7 89 1.2 S 13 17 7 9 1008.5 1008.5 12.8
27/08:18am 22.3 23.5 20.6 90 1.1 S 15 17 8 9 1008.4 1008.4 12.8
27/08:00am 21.9 25.9 20.5 92 0.9 CALM 0 0 0 0 1008.1 1008.1 12.8
27/07:30am 21.1 25.0 20.3 95 0.5 CALM 0 0 0 0 1007.8 1007.8 12.8
27/07:00am 20.5 24.1 19.7 95 0.5 CALM 0 0 0 0 1007.7 1007.7 12.8
27/06:38am 19.7 22.8 18.7 94 0.6 CALM 0 0 0 0 1007.4 1007.4 12.8
27/06:30am 19.9 23.1 18.9 94 0.6 CALM 0 0 0 0 1007.2 1007.2 12.8
27/06:18am 19.7 22.8 18.7 94 0.6 CALM 0 0 0 0 1007.1 1007.1 12.8
27/06:00am 20.0 23.3 19.0 94 0.6 CALM 0 0 0 0 1006.8 1006.8 12.8
27/05:30am 20.0 23.3 19.0 94 0.6 CALM 0 0 0 0 1006.4 1006.4 12.8
27/05:00am 20.2 23.5 19.0 93 0.8 CALM 0 0 0 0 1006.0 1006.0 12.8
27/04:30am 20.4 23.7 19.2 93 0.8 CALM 0 0 0 0 1006.1 1006.1 12.8
27/04:00am 20.7 22.2 19.7 94 0.6 N 11 13 6 7 1006.0 1006.0 12.8
27/03:30am 20.7 21.4 19.7 94 0.6 N 15 17 8 9 1006.0 1006.0 12.8
27/03:00am 20.8 24.3 19.6 93 0.8 CALM 0 7 0 4 1006.5 1006.5 12.8
27/02:30am 21.0 24.6 19.7 92 0.8 CALM 0 0 0 0 1007.0 1007.0 12.8
27/02:00am 21.1 23.7 20.1 94 0.6 SSE 6 20 3 11 1007.8 1007.8 12.8
27/01:30am 21.2 23.3 20.2 94 0.6 NNW 9 15 5 8 1008.0 1008.0 12.8
27/01:00am 21.4 23.6 20.4 94 0.6 N 9 13 5 7 1008.6 1008.6 12.8
27/12:30am 21.3 22.6 20.1 93 0.8 N 13 17 7 9 1009.1 1009.1 12.8
27/12:00am 21.5 23.2 20.1 92 0.9 N 11 15 6 8 1009.2 1009.2 12.8
 
Date/Time
EDT
Temp
°C
App
Temp
°C
Dew
Point
°C
Rel
Hum
%
Delta-T
°C
Wind Press
QNH
hPa
Press
MSL
hPa
Rain since
9am
mm
Dir  Spd
km/h
Gust
km/h
Spd
kts
Gust
kts
26/11:33pm 21.4 22.3 20.0 92 0.9 N 15 20 8 11 1009.2 1009.2 12.8
26/11:30pm 21.3 21.7 19.8 91 1.0 N 17 20 9 11 1009.2 1009.2 12.8
26/11:14pm 21.1 20.7 19.4 90 1.1 NNW 20 28 11 15 1009.6 1009.6 12.8
26/11:00pm 21.2 21.4 19.3 89 1.2 N 17 24 9 13 1009.5 1009.5 12.8
26/10:30pm 21.4 23.5 20.2 93 0.8 NNE 9 13 5 7 1009.8 1009.8 12.6
26/10:21pm 20.7 22.1 19.5 93 0.8 E 11 22 6 12 1009.8 1009.8 12.6
26/10:00pm 21.2 21.3 20.0 93 0.8 SSE 19 26 10 14 1010.5 1010.5 11.6
26/09:48pm 21.2 17.7 19.5 90 1.1 SSW 37 63 20 34 1010.3 1010.3 6.4
26/09:47pm 21.3 17.7 19.4 89 1.2 SSW 37 63 20 34 1010.4 1010.4 5.4
26/09:45pm 21.7 18.5 19.4 87 1.5 SW 35 63 19 34 1010.2 1010.2 2.6
26/09:44pm 21.9 19.0 19.3 85 1.7 WSW 33 63 18 34 1010.1 1010.1 1.6
26/09:41pm 23.2 21.1 18.9 77 2.7 WNW 28 63 15 34 1009.5 1009.5 0.0
26/09:40pm 23.5 22.0 19.4 78 2.6 NW 26 48 14 26 1009.5 1009.5 0.0
26/09:37pm 24.9 25.9 22.8 88 1.4 NNW 22 28 12 15 1009.1 1009.1 0.0
26/09:30pm 25.0 26.9 22.7 87 1.5 N 17 28 9 15 1008.6 1008.6 0.0
26/09:00pm 25.8 29.0 22.3 81 2.4 NNE 9 13 5 7 1007.7 1007.7 0.0
26/08:30pm 25.9 27.5 22.2 80 2.5 NNE 17 24 9 13 1007.3 1007.3 0.0
26/08:00pm 26.0 28.0 22.3 80 2.5 NNE 15 24 8 13 1007.1 1007.1 0.0
26/07:30pm 26.0 27.7 22.3 80 2.5 NNE 17 24 9 13 1006.9 1006.9 0.0
26/07:00pm 26.1 27.2 22.0 78 2.7 NE 19 26 10 14 1006.0 1006.0 0.0
26/06:30pm 26.6 27.7 22.0 76 3.1 NE 19 30 10 16 1005.9 1005.9 0.0
26/06:00pm 27.6 28.3 22.3 73 3.6 NNE 22 32 12 17 1006.0 1006.0 0.0
26/05:30pm 27.6 28.8 22.5 74 3.4 NE 20 28 11 15 1006.0 1006.0 0.0
26/05:00pm 27.8 28.4 22.1 71 3.8 NE 22 32 12 17 1005.7 1005.7 0.0
26/04:30pm 28.5 29.0 22.0 68 4.4 NE 22 32 12 17 1005.7 1005.7 0.0
26/04:00pm 30.3 31.6 22.7 64 5.2 NE 20 28 11 15 1005.9 1005.9 0.0
26/03:30pm 30.9 33.1 23.3 64 5.2 NE 17 22 9 12 1006.5 1006.5 0.0
26/03:00pm 30.6 33.0 23.0 64 5.2 NNE 15 28 8 15 1007.0 1007.0 0.0

Other formats

Comma delimited format used in spreadsheet applications
http://www.bom.gov.au/fwo/IDN60801/IDN60801.94572.axf

JavaScript Object Notation format (JSON) in row-major order
http://www.bom.gov.au/fwo/IDN60801/IDN60801.94572.json

Data quality

Most of these data are generated automatically and are frequently updated. Quality checks on data are not normally performed. It is possible for incorrect values to appear. Refer to information at About Latest Weather Observations and please check the disclaimer before using these data.